PWSweather.com
Personal Weather Stations
Station Observations
IROGLAN40
AalgaardNO 4330

AalgaardNO 4330

Lat: 58.773, Lon: 5.846

Elevation: 326

Station Type: Davis Vanatge Pro2

Latest ConditionsUpdated 2:20:01 PM GMT+01:01 Saturday, May 23, 2015
Currently Today's Max Today's Min Today's Average
Temperature 48.6°F9.2°C 49.3°F9.6°C 44.4°F6.9°C 45.9°F7.7°C
Dew Point 36.9°F2.7°C 43.0°F6.1°C 36.9°F2.7°C 40.5°F4.7°C
Winds 6.5 mph WNW10.5 kmh WNW 9.8 mph WNW15.8 kmh WNW - 7.0 mph 11.3 kmh
Wind Gusts 9.0 mph14.5 kmh 18.0 mph29.0 kmh - -
Humidity 64% 92% 64% 82%
Pressure 30.14 in1020.7 mb 30.14 in1020.7 mb 30.02 in1016.6 mb -
Precipitation - 0.01 in0.3 mm - -
Hour Temp Dew Point Humidity Winds Wind Gusts Pressure Precip Precip Rate Daily Precip Total
02:20 PM 48.6°F9.2°C 36.9°F2.7°C 64% 6.5 mph WNW10.5 kmh WNW 9.0 mph14.5 kmh 30.14 in1020.7 mb - 0.00 in0.0 mm 0.01 in0.3 mm
02:10 PM 49.0°F9.4°C 38.1°F3.4°C 66% 8.7 mph WNW14.0 kmh WNW 11.0 mph17.7 kmh 30.14 in1020.7 mb - 0.00 in0.0 mm 0.01 in0.3 mm
02:00 PM 48.4°F9.1°C 38.0°F3.3°C 67% 9.1 mph NW14.6 kmh NW 14.0 mph22.5 kmh 30.14 in1020.7 mb - 0.00 in0.0 mm 0.01 in0.3 mm
01:50 PM 48.4°F9.1°C 38.7°F3.7°C 69% 9.1 mph NW14.6 kmh NW 15.0 mph24.1 kmh 30.14 in1020.7 mb - 0.00 in0.0 mm 0.01 in0.3 mm
01:40 PM 48.3°F9.1°C 38.2°F3.4°C 68% 8.2 mph WNW13.2 kmh WNW 11.0 mph17.7 kmh 30.14 in1020.7 mb - 0.00 in0.0 mm 0.01 in0.3 mm
01:30 PM 48.6°F9.2°C 37.8°F3.2°C 66% 9.4 mph W15.1 kmh W 14.0 mph22.5 kmh 30.14 in1020.7 mb - 0.00 in0.0 mm 0.01 in0.3 mm
01:20 PM 48.2°F9.0°C 37.0°F2.8°C 65% 7.2 mph NW11.6 kmh NW 13.0 mph20.9 kmh 30.14 in1020.7 mb - 0.00 in0.0 mm 0.01 in0.3 mm
01:10 PM 49.3°F9.6°C 38.4°F3.6°C 66% 9.2 mph NW14.8 kmh NW 14.0 mph22.5 kmh 30.14 in1020.7 mb - 0.00 in0.0 mm 0.01 in0.3 mm
01:00 PM 48.2°F9.0°C 38.2°F3.4°C 68% 7.3 mph NW11.7 kmh NW 12.0 mph19.3 kmh 30.14 in1020.7 mb - 0.00 in0.0 mm 0.01 in0.3 mm
12:50 PM 48.9°F9.4°C 38.4°F3.6°C 67% 7.7 mph NW12.4 kmh NW 11.0 mph17.7 kmh 30.14 in1020.7 mb - 0.00 in0.0 mm 0.01 in0.3 mm
12:40 PM 48.0°F8.9°C 38.0°F3.3°C 68% 9.7 mph WNW15.6 kmh WNW 12.0 mph19.3 kmh 30.14 in1020.7 mb - 0.00 in0.0 mm 0.01 in0.3 mm
12:30 PM 47.1°F8.4°C 37.5°F3.1°C 69% 7.7 mph NNW12.4 kmh NNW 12.0 mph19.3 kmh 30.14 in1020.7 mb - 0.00 in0.0 mm 0.01 in0.3 mm
12:20 PM 47.2°F8.4°C 37.6°F3.1°C 69% 7.7 mph NW12.4 kmh NW 13.0 mph20.9 kmh 30.14 in1020.7 mb - 0.00 in0.0 mm 0.01 in0.3 mm
12:10 PM 47.3°F8.5°C 37.6°F3.1°C 69% 7.1 mph W11.4 kmh W 10.0 mph16.1 kmh 30.14 in1020.7 mb - 0.00 in0.0 mm 0.01 in0.3 mm
12:00 PM 47.2°F8.4°C 37.9°F3.3°C 70% 6.1 mph NW9.8 kmh NW 11.0 mph17.7 kmh 30.14 in1020.7 mb - 0.00 in0.0 mm 0.01 in0.3 mm
11:50 AM 47.4°F8.6°C 37.8°F3.2°C 69% 7.9 mph NW12.7 kmh NW 10.0 mph16.1 kmh 30.14 in1020.7 mb - 0.00 in0.0 mm 0.01 in0.3 mm
11:40 AM 47.4°F8.6°C 38.5°F3.6°C 71% 8.3 mph NNE13.4 kmh NNE 11.0 mph17.7 kmh 30.14 in1020.7 mb - 0.00 in0.0 mm 0.01 in0.3 mm
11:30 AM 48.0°F8.9°C 39.8°F4.3°C 73% 5.1 mph WNW8.2 kmh WNW 8.0 mph12.9 kmh 30.14 in1020.7 mb - 0.00 in0.0 mm 0.01 in0.3 mm
11:20 AM 46.7°F8.2°C 38.2°F3.4°C 72% 5.8 mph WNW9.3 kmh WNW 7.0 mph11.3 kmh 30.14 in1020.7 mb - 0.00 in0.0 mm 0.01 in0.3 mm
11:10 AM 46.7°F8.2°C 38.5°F3.6°C 73% 7.0 mph NW11.3 kmh NW 13.0 mph20.9 kmh 30.14 in1020.7 mb - 0.00 in0.0 mm 0.01 in0.3 mm
11:00 AM 47.3°F8.5°C 38.8°F3.8°C 72% 4.9 mph NW7.9 kmh NW 8.0 mph12.9 kmh 30.13 in1020.3 mb - 0.00 in0.0 mm 0.01 in0.3 mm
10:50 AM 46.9°F8.3°C 39.0°F3.9°C 74% 4.2 mph WNW6.8 kmh WNW 9.0 mph14.5 kmh 30.13 in1020.3 mb - 0.00 in0.0 mm 0.01 in0.3 mm
10:40 AM 46.6°F8.1°C 38.4°F3.6°C 73% 9.8 mph WNW15.8 kmh WNW 15.0 mph24.1 kmh 30.13 in1020.3 mb - 0.00 in0.0 mm 0.01 in0.3 mm
10:30 AM 47.1°F8.4°C 38.1°F3.4°C 71% 8.3 mph WNW13.4 kmh WNW 10.0 mph16.1 kmh 30.12 in1020.0 mb - 0.00 in0.0 mm 0.01 in0.3 mm
10:20 AM 47.0°F8.3°C 38.8°F3.8°C 73% 8.8 mph NW14.2 kmh NW 14.0 mph22.5 kmh 30.13 in1020.3 mb - 0.00 in0.0 mm 0.01 in0.3 mm
10:10 AM 46.5°F8.1°C 39.3°F4.1°C 76% 7.4 mph WNW11.9 kmh WNW 11.0 mph17.7 kmh 30.12 in1020.0 mb - 0.00 in0.0 mm 0.01 in0.3 mm
10:00 AM 46.8°F8.2°C 39.6°F4.2°C 76% 7.8 mph NW12.6 kmh NW 15.0 mph24.1 kmh 30.12 in1020.0 mb - 0.00 in0.0 mm 0.01 in0.3 mm
09:50 AM 47.3°F8.5°C 40.5°F4.7°C 77% 8.0 mph WNW12.9 kmh WNW 12.0 mph19.3 kmh 30.11 in1019.6 mb - 0.00 in0.0 mm 0.01 in0.3 mm
09:40 AM 46.4°F8.0°C 40.9°F4.9°C 81% 7.5 mph WNW12.1 kmh WNW 13.0 mph20.9 kmh 30.11 in1019.6 mb - 0.00 in0.0 mm 0.01 in0.3 mm
09:30 AM 45.1°F7.3°C 40.6°F4.8°C 84% 7.9 mph W12.7 kmh W 11.0 mph17.7 kmh 30.11 in1019.6 mb - 0.00 in0.0 mm 0.01 in0.3 mm
09:20 AM 44.6°F7.0°C 40.1°F4.5°C 84% 7.8 mph WNW12.6 kmh WNW 11.0 mph17.7 kmh 30.11 in1019.6 mb - 0.00 in0.0 mm 0.01 in0.3 mm
09:10 AM 44.7°F7.1°C 39.9°F4.4°C 83% 8.3 mph NW13.4 kmh NW 12.0 mph19.3 kmh 30.11 in1019.6 mb - 0.00 in0.0 mm 0.01 in0.3 mm
09:00 AM 45.4°F7.4°C 39.6°F4.2°C 80% 7.4 mph WNW11.9 kmh WNW 18.0 mph29.0 kmh 30.11 in1019.6 mb - 0.00 in0.0 mm 0.01 in0.3 mm
08:50 AM 46.0°F7.8°C 39.5°F4.2°C 78% 6.7 mph WNW10.8 kmh WNW 11.0 mph17.7 kmh 30.10 in1019.3 mb - 0.00 in0.0 mm 0.01 in0.3 mm
08:40 AM 45.8°F7.7°C 39.3°F4.1°C 78% 7.1 mph WNW11.4 kmh WNW 11.0 mph17.7 kmh 30.10 in1019.3 mb - 0.00 in0.0 mm 0.01 in0.3 mm
08:30 AM 45.5°F7.5°C 39.4°F4.1°C 79% 5.6 mph W9.0 kmh W 9.0 mph14.5 kmh 30.10 in1019.3 mb - 0.00 in0.0 mm 0.01 in0.3 mm
08:20 AM 45.8°F7.7°C 39.7°F4.3°C 79% 6.8 mph W10.9 kmh W 11.0 mph17.7 kmh 30.10 in1019.3 mb - 0.00 in0.0 mm 0.01 in0.3 mm
08:10 AM 45.6°F7.6°C 40.1°F4.5°C 81% 4.8 mph WNW7.7 kmh WNW 7.0 mph11.3 kmh 30.09 in1019.0 mb - 0.00 in0.0 mm 0.01 in0.3 mm
08:00 AM 45.1°F7.3°C 40.2°F4.6°C 83% 5.8 mph WNW9.3 kmh WNW 9.0 mph14.5 kmh 30.09 in1019.0 mb - 0.00 in0.0 mm 0.01 in0.3 mm
07:50 AM 45.2°F7.3°C 41.3°F5.2°C 86% 6.4 mph WNW10.3 kmh WNW 10.0 mph16.1 kmh 30.08 in1018.6 mb - 0.00 in0.0 mm 0.01 in0.3 mm
07:40 AM 44.6°F7.0°C 41.3°F5.2°C 88% 7.7 mph WNW12.4 kmh WNW 10.0 mph16.1 kmh 30.07 in1018.3 mb - 0.00 in0.0 mm 0.01 in0.3 mm
07:30 AM 44.9°F7.2°C 41.5°F5.3°C 88% 6.8 mph NW10.9 kmh NW 9.0 mph14.5 kmh 30.07 in1018.3 mb - 0.00 in0.0 mm 0.01 in0.3 mm
07:20 AM 44.6°F7.0°C 41.3°F5.2°C 88% 5.5 mph WNW8.9 kmh WNW 9.0 mph14.5 kmh 30.07 in1018.3 mb - 0.00 in0.0 mm 0.01 in0.3 mm
07:10 AM 44.4°F6.9°C 41.1°F5.1°C 88% 7.5 mph WNW12.1 kmh WNW 10.0 mph16.1 kmh 30.07 in1018.3 mb - 0.00 in0.0 mm 0.01 in0.3 mm
07:00 AM 44.5°F6.9°C 41.5°F5.3°C 89% 4.5 mph WNW7.2 kmh WNW 9.0 mph14.5 kmh 30.06 in1017.9 mb - 0.00 in0.0 mm 0.01 in0.3 mm
06:50 AM 44.6°F7.0°C 41.6°F5.3°C 89% 7.2 mph NW11.6 kmh NW 9.0 mph14.5 kmh 30.05 in1017.6 mb - 0.00 in0.0 mm 0.01 in0.3 mm
06:40 AM 45.0°F7.2°C 42.0°F5.6°C 89% 8.4 mph NNW13.5 kmh NNW 15.0 mph24.1 kmh 30.05 in1017.6 mb - 0.00 in0.0 mm 0.01 in0.3 mm
06:30 AM 45.0°F7.2°C 42.0°F5.6°C 89% 7.5 mph WNW12.1 kmh WNW 14.0 mph22.5 kmh 30.05 in1017.6 mb - 0.00 in0.0 mm 0.01 in0.3 mm
06:20 AM 44.9°F7.2°C 41.9°F5.5°C 89% 5.6 mph W9.0 kmh W 7.0 mph11.3 kmh 30.04 in1017.3 mb - 0.00 in0.0 mm 0.01 in0.3 mm
06:10 AM 44.8°F7.1°C 41.8°F5.4°C 89% 6.9 mph WNW11.1 kmh WNW 9.0 mph14.5 kmh 30.04 in1017.3 mb - 0.00 in0.0 mm 0.01 in0.3 mm
06:00 AM 44.7°F7.1°C 41.9°F5.5°C 90% 8.1 mph WNW13.0 kmh WNW 14.0 mph22.5 kmh 30.03 in1016.9 mb - 0.00 in0.0 mm 0.01 in0.3 mm
05:50 AM 44.5°F6.9°C 41.7°F5.4°C 90% 8.4 mph WNW13.5 kmh WNW 13.0 mph20.9 kmh 30.03 in1016.9 mb - 0.00 in0.0 mm 0.01 in0.3 mm
05:40 AM 44.8°F7.1°C 42.3°F5.7°C 91% 8.0 mph WNW12.9 kmh WNW 15.0 mph24.1 kmh 30.03 in1016.9 mb - 0.00 in0.0 mm 0.01 in0.3 mm
05:30 AM 44.8°F7.1°C 42.3°F5.7°C 91% 6.6 mph W10.6 kmh W 11.0 mph17.7 kmh 30.03 in1016.9 mb - 0.00 in0.0 mm 0.01 in0.3 mm
05:20 AM 45.0°F7.2°C 42.8°F6.0°C 92% 7.6 mph NW12.2 kmh NW 12.0 mph19.3 kmh 30.02 in1016.6 mb - 0.00 in0.0 mm 0.01 in0.3 mm
05:10 AM 45.1°F7.3°C 42.9°F6.1°C 92% 6.2 mph WNW10.0 kmh WNW 8.0 mph12.9 kmh 30.02 in1016.6 mb - 0.00 in0.0 mm 0.01 in0.3 mm
05:00 AM 45.0°F7.2°C 42.8°F6.0°C 92% 6.4 mph NW10.3 kmh NW 12.0 mph19.3 kmh 30.02 in1016.6 mb - 0.00 in0.0 mm 0.01 in0.3 mm
04:50 AM 45.1°F7.3°C 42.9°F6.1°C 92% 5.9 mph WNW9.5 kmh WNW 8.0 mph12.9 kmh 30.02 in1016.6 mb - 0.00 in0.0 mm 0.01 in0.3 mm
04:40 AM 44.9°F7.2°C 42.7°F5.9°C 92% 5.3 mph WNW8.5 kmh WNW 8.0 mph12.9 kmh 30.02 in1016.6 mb - 0.00 in0.0 mm 0.01 in0.3 mm
04:30 AM 44.9°F7.2°C 42.7°F5.9°C 92% 7.4 mph NW11.9 kmh NW 9.0 mph14.5 kmh 30.02 in1016.6 mb - 0.00 in0.0 mm 0.01 in0.3 mm
04:20 AM 45.1°F7.3°C 42.9°F6.1°C 92% 5.3 mph WNW8.5 kmh WNW 7.0 mph11.3 kmh 30.02 in1016.6 mb - 0.00 in0.0 mm 0.01 in0.3 mm
04:10 AM 45.2°F7.3°C 43.0°F6.1°C 92% 7.8 mph NW12.6 kmh NW 12.0 mph19.3 kmh 30.02 in1016.6 mb - 0.00 in0.0 mm 0.01 in0.3 mm
04:00 AM 45.1°F7.3°C 42.9°F6.1°C 92% 5.0 mph NW8.0 kmh NW 10.0 mph16.1 kmh 30.02 in1016.6 mb - 0.00 in0.0 mm 0.01 in0.3 mm
03:50 AM 45.0°F7.2°C 42.8°F6.0°C 92% 5.6 mph NW9.0 kmh NW 8.0 mph12.9 kmh 30.02 in1016.6 mb - 0.00 in0.0 mm 0.01 in0.3 mm
03:40 AM 44.8°F7.1°C 42.4°F5.8°C 91% 6.0 mph NW9.7 kmh NW 10.0 mph16.1 kmh 30.02 in1016.6 mb - 0.01 in0.3 mm 0.01 in0.3 mm
03:30 AM 45.1°F7.3°C 42.9°F6.1°C 92% 7.8 mph WNW12.6 kmh WNW 11.0 mph17.7 kmh 30.02 in1016.6 mb - 0.00 in0.0 mm 0.00 in0.0 mm
03:20 AM 45.1°F7.3°C 42.6°F5.9°C 91% 6.0 mph NW9.7 kmh NW 9.0 mph14.5 kmh 30.02 in1016.6 mb - 0.00 in0.0 mm 0.00 in0.0 mm
03:10 AM 45.0°F7.2°C 42.5°F5.8°C 91% 4.9 mph NW7.9 kmh NW 8.0 mph12.9 kmh 30.02 in1016.6 mb - 0.00 in0.0 mm 0.00 in0.0 mm
03:00 AM 45.0°F7.2°C 42.2°F5.7°C 90% 5.6 mph NW9.0 kmh NW 8.0 mph12.9 kmh 30.02 in1016.6 mb - 0.00 in0.0 mm 0.00 in0.0 mm
02:50 AM 45.1°F7.3°C 42.3°F5.7°C 90% 6.8 mph NNW10.9 kmh NNW 11.0 mph17.7 kmh 30.02 in1016.6 mb - 0.00 in0.0 mm 0.00 in0.0 mm
02:40 AM 45.1°F7.3°C 42.3°F5.7°C 90% 6.1 mph NNW9.8 kmh NNW 10.0 mph16.1 kmh 30.02 in1016.6 mb - 0.00 in0.0 mm 0.00 in0.0 mm
02:30 AM 45.2°F7.3°C 42.2°F5.7°C 89% 7.2 mph WNW11.6 kmh WNW 12.0 mph19.3 kmh 30.02 in1016.6 mb - 0.00 in0.0 mm 0.00 in0.0 mm
02:20 AM 45.3°F7.4°C 41.9°F5.5°C 88% 6.2 mph NW10.0 kmh NW 11.0 mph17.7 kmh 30.02 in1016.6 mb - 0.00 in0.0 mm 0.00 in0.0 mm
02:10 AM 45.4°F7.4°C 41.8°F5.4°C 87% 6.8 mph NW10.9 kmh NW 15.0 mph24.1 kmh 30.03 in1016.9 mb - 0.00 in0.0 mm 0.00 in0.0 mm
02:00 AM 45.4°F7.4°C 41.5°F5.3°C 86% 6.5 mph NW10.5 kmh NW 8.0 mph12.9 kmh 30.02 in1016.6 mb - 0.00 in0.0 mm 0.00 in0.0 mm
01:50 AM 45.3°F7.4°C 41.3°F5.2°C 86% 6.6 mph NW10.6 kmh NW 13.0 mph20.9 kmh 30.02 in1016.6 mb - 0.00 in0.0 mm 0.00 in0.0 mm
01:40 AM 45.3°F7.4°C 41.1°F5.1°C 85% 5.3 mph NW8.5 kmh NW 7.0 mph11.3 kmh 30.02 in1016.6 mb - 0.00 in0.0 mm 0.00 in0.0 mm
01:30 AM 45.2°F7.3°C 40.7°F4.8°C 84% 7.0 mph NW11.3 kmh NW 8.0 mph12.9 kmh 30.02 in1016.6 mb - 0.00 in0.0 mm 0.00 in0.0 mm
01:20 AM 45.3°F7.4°C 40.7°F4.8°C 84% 6.6 mph NW10.6 kmh NW 9.0 mph14.5 kmh 30.02 in1016.6 mb - 0.00 in0.0 mm 0.00 in0.0 mm
01:10 AM 45.2°F7.3°C 40.3°F4.6°C 83% 6.0 mph NW9.7 kmh NW 10.0 mph16.1 kmh 30.02 in1016.6 mb - 0.00 in0.0 mm 0.00 in0.0 mm
01:00 AM 45.2°F7.3°C 40.7°F4.8°C 84% 5.7 mph NW9.2 kmh NW 8.0 mph12.9 kmh 30.02 in1016.6 mb - 0.00 in0.0 mm 0.00 in0.0 mm
12:50 AM 45.1°F7.3°C 40.6°F4.8°C 84% 7.0 mph W11.3 kmh W 10.0 mph16.1 kmh 30.02 in1016.6 mb - 0.00 in0.0 mm 0.00 in0.0 mm
12:40 AM 45.3°F7.4°C 41.1°F5.1°C 85% 6.3 mph NW10.1 kmh NW 8.0 mph12.9 kmh 30.02 in1016.6 mb - 0.00 in0.0 mm 0.00 in0.0 mm
12:30 AM 45.2°F7.3°C 41.2°F5.1°C 86% 6.7 mph WNW10.8 kmh WNW 10.0 mph16.1 kmh 30.02 in1016.6 mb - 0.00 in0.0 mm 0.00 in0.0 mm
12:20 AM 45.0°F7.2°C 41.1°F5.1°C 86% 9.2 mph WNW14.8 kmh WNW 11.0 mph17.7 kmh 30.02 in1016.6 mb - 0.00 in0.0 mm 0.00 in0.0 mm
12:10 AM 44.9°F7.2°C 41.0°F5.0°C 86% 6.5 mph NW10.5 kmh NW 8.0 mph12.9 kmh 30.02 in1016.6 mb - 0.00 in0.0 mm 0.00 in0.0 mm